createdAt,value
2023-02-22T00:02:27.244Z,17.90
2023-02-22T00:05:15.843Z,18.17
2023-02-22T00:11:05.530Z,18.20
2023-02-22T00:13:54.670Z,17.17
2023-02-22T00:16:45.838Z,16.83
2023-02-22T00:19:29.708Z,15.90
2023-02-22T00:22:13.440Z,16.83
2023-02-22T00:25:07.076Z,16.00
2023-02-22T00:27:56.575Z,16.17
2023-02-22T00:30:48.423Z,17.30
2023-02-22T00:33:33.325Z,16.13
2023-02-22T00:36:16.818Z,15.93
2023-02-22T00:38:54.842Z,15.23
2023-02-22T00:41:27.363Z,16.57
2023-02-22T00:44:00.207Z,15.03
2023-02-22T00:46:33.441Z,15.70
2023-02-22T00:49:16.200Z,16.40
2023-02-22T00:51:59.881Z,15.10
2023-02-22T00:54:40.988Z,15.23
2023-02-22T00:57:14.521Z,14.73
2023-02-22T00:59:48.134Z,14.13
2023-02-22T01:02:29.226Z,14.80
2023-02-22T01:05:28.445Z,14.17
2023-02-22T01:08:10.289Z,14.43
2023-02-22T01:10:41.776Z,14.20
2023-02-22T01:13:23.379Z,14.57
2023-02-22T01:15:56.983Z,14.03
2023-02-22T01:18:30.543Z,14.10
2023-02-22T01:21:06.218Z,14.57
2023-02-22T01:23:53.168Z,13.70
2023-02-22T01:26:22.935Z,13.30
2023-02-22T01:28:52.772Z,12.20
2023-02-22T01:31:34.777Z,13.37
2023-02-22T01:34:12.722Z,12.47
2023-02-22T01:37:04.144Z,12.77
2023-02-22T01:42:29.767Z,13.13
2023-02-22T01:45:44.165Z,13.20
2023-02-22T01:48:20.179Z,13.27
2023-02-22T01:50:55.771Z,12.80
2023-02-22T01:53:39.454Z,13.80
2023-02-22T01:56:33.217Z,14.97
2023-02-22T02:02:19.673Z,13.90
2023-02-22T02:04:50.505Z,14.47
2023-02-22T02:07:29.913Z,15.07
2023-02-22T02:10:17.921Z,14.73
2023-02-22T02:12:53.593Z,14.90
2023-02-22T02:15:49.757Z,13.97
2023-02-22T02:21:51.002Z,13.63
2023-02-22T02:24:56.140Z,14.13
2023-02-22T02:27:42.911Z,14.43
2023-02-22T02:30:45.765Z,14.67
2023-02-22T02:33:29.756Z,13.40
2023-02-22T02:36:11.924Z,12.80
2023-02-22T02:38:49.883Z,13.53
2023-02-22T02:41:33.741Z,12.80
2023-02-22T02:44:09.401Z,14.20
2023-02-22T02:46:49.523Z,13.50
2023-02-22T02:49:32.101Z,14.77
2023-02-22T02:52:04.952Z,13.67
2023-02-22T02:54:37.064Z,14.63
2023-02-22T02:57:09.558Z,13.87
2023-02-22T02:59:41.305Z,13.80
2023-02-22T03:02:38.531Z,13.60
2023-02-22T03:05:33.122Z,13.73
2023-02-22T03:08:13.270Z,15.00
2023-02-22T03:10:56.752Z,13.67
2023-02-22T03:13:34.050Z,13.50
2023-02-22T03:16:12.516Z,14.10
2023-02-22T03:18:53.771Z,14.40
2023-02-22T03:21:34.206Z,13.87
2023-02-22T03:24:10.868Z,14.33
2023-02-22T03:26:45.421Z,13.27
2023-02-22T03:29:18.789Z,13.87
2023-02-22T03:31:53.803Z,15.70
2023-02-22T03:34:29.213Z,15.23
2023-02-22T03:37:06.995Z,15.13
2023-02-22T03:39:40.504Z,15.67
2023-02-22T03:42:15.393Z,15.33
2023-02-22T03:44:48.944Z,15.07
2023-02-22T03:47:24.617Z,15.07
2023-02-22T03:49:58.694Z,16.00
2023-02-22T03:52:31.404Z,14.77
2023-02-22T03:55:01.228Z,13.67
2023-02-22T03:57:36.871Z,15.07
2023-02-22T04:00:10.299Z,15.03
2023-02-22T04:02:43.319Z,12.53
2023-02-22T04:05:17.342Z,11.50
2023-02-22T04:07:49.757Z,12.17
2023-02-22T04:10:22.626Z,9.67
2023-02-22T04:12:56.292Z,9.30
2023-02-22T04:15:37.587Z,9.23
2023-02-22T04:18:08.904Z,9.63
2023-02-22T04:20:48.264Z,9.67
2023-02-22T04:23:27.200Z,7.80
2023-02-22T04:26:03.668Z,8.67
2023-02-22T04:28:33.678Z,8.27
2023-02-22T04:31:03.651Z,9.77
2023-02-22T04:33:33.527Z,9.10
2023-02-22T04:36:03.437Z,9.53
2023-02-22T04:38:36.321Z,9.50
2023-02-22T04:41:08.652Z,10.07
2023-02-22T04:43:38.538Z,9.57
2023-02-22T04:46:08.846Z,9.07
2023-02-22T04:48:38.877Z,9.80
2023-02-22T04:51:09.441Z,9.97
2023-02-22T04:53:44.648Z,9.77
2023-02-22T04:56:14.771Z,9.37
2023-02-22T04:58:44.625Z,9.70
2023-02-22T05:01:15.042Z,9.33
2023-02-22T05:03:45.649Z,9.97
2023-02-22T05:06:15.573Z,9.30
2023-02-22T05:08:50.597Z,9.33
2023-02-22T05:11:23.229Z,10.23
2023-02-22T05:14:03.214Z,9.20
2023-02-22T05:16:41.651Z,9.27
2023-02-22T05:19:17.779Z,10.07
2023-02-22T05:21:54.567Z,11.50
2023-02-22T05:24:29.907Z,9.03
2023-02-22T05:27:11.386Z,10.50
2023-02-22T05:30:04.149Z,10.30
2023-02-22T05:32:48.511Z,10.70
2023-02-22T05:35:29.221Z,10.20
2023-02-22T05:38:04.059Z,10.67
2023-02-22T05:40:39.731Z,10.30
2023-02-22T05:43:17.072Z,20.00
2023-02-22T05:45:59.717Z,11.03
2023-02-22T05:48:39.202Z,11.57
2023-02-22T05:51:10.902Z,11.33
2023-02-22T05:53:43.824Z,10.80
2023-02-22T05:56:22.388Z,11.23
2023-02-22T05:59:02.521Z,10.73
2023-02-22T06:01:43.676Z,11.13
2023-02-22T06:04:16.510Z,10.83
2023-02-22T06:06:47.500Z,11.63
2023-02-22T06:09:28.839Z,11.37
2023-02-22T06:12:03.922Z,10.43
2023-02-22T06:14:49.522Z,10.60
2023-02-22T06:17:23.558Z,10.73
2023-02-22T06:19:56.761Z,10.77
2023-02-22T06:22:26.660Z,10.30
2023-02-22T06:24:57.181Z,11.47
2023-02-22T06:27:33.784Z,10.73
2023-02-22T06:30:22.071Z,11.43
2023-02-22T06:33:04.703Z,10.23
2023-02-22T06:35:35.404Z,11.13
2023-02-22T06:38:14.967Z,10.53
2023-02-22T06:40:45.527Z,11.60
2023-02-22T06:46:23.918Z,11.73
2023-02-22T06:48:57.603Z,11.40
2023-02-22T06:51:46.188Z,11.83
2023-02-22T06:54:29.732Z,11.53
2023-02-22T06:57:07.962Z,10.80
2023-02-22T06:59:49.814Z,11.70
2023-02-22T07:02:22.971Z,10.33
2023-02-22T07:05:02.903Z,10.80
2023-02-22T07:07:35.130Z,11.33
2023-02-22T07:10:08.630Z,11.53
2023-02-22T07:12:41.612Z,11.03
2023-02-22T07:15:21.756Z,10.70
2023-02-22T07:18:00.106Z,10.77
2023-02-22T07:20:37.914Z,10.50
2023-02-22T07:23:10.883Z,11.97
2023-02-22T07:25:41.575Z,11.23
2023-02-22T07:28:11.879Z,11.17
2023-02-22T07:30:46.479Z,10.13
2023-02-22T07:33:24.157Z,11.07
2023-02-22T07:36:25.621Z,11.30
2023-02-22T07:38:55.731Z,10.93
2023-02-22T07:41:28.672Z,11.07
2023-02-22T07:44:16.529Z,10.00
2023-02-22T07:47:02.093Z,10.50
2023-02-22T07:49:44.256Z,10.03
2023-02-22T07:52:23.152Z,10.50
2023-02-22T07:55:01.784Z,9.60
2023-02-22T07:57:32.446Z,10.13
2023-02-22T08:00:02.523Z,10.30
2023-02-22T08:02:37.310Z,11.07
2023-02-22T08:05:20.270Z,10.23
2023-02-22T08:08:00.759Z,9.67
2023-02-22T08:10:34.010Z,10.40
2023-02-22T08:13:15.179Z,10.23
2023-02-22T08:15:52.733Z,10.60
2023-02-22T08:18:31.200Z,10.10
2023-02-22T08:21:07.860Z,11.77
2023-02-22T08:23:41.038Z,10.87
2023-02-22T08:26:25.732Z,10.43
2023-02-22T08:29:04.191Z,11.17
2023-02-22T08:31:47.297Z,11.73
2023-02-22T08:34:20.855Z,11.77
2023-02-22T08:36:51.382Z,11.53
2023-02-22T08:39:23.949Z,11.73
2023-02-22T08:41:57.646Z,11.87
2023-02-22T08:44:28.238Z,11.37
2023-02-22T08:47:06.080Z,11.60
2023-02-22T08:49:44.696Z,10.63
2023-02-22T08:52:24.468Z,11.60
2023-02-22T08:54:56.051Z,10.70
2023-02-22T08:57:38.602Z,11.67
2023-02-22T09:00:13.282Z,10.47
2023-02-22T09:02:43.358Z,11.57
2023-02-22T09:05:19.267Z,12.17
2023-02-22T09:08:06.542Z,11.93
2023-02-22T09:10:45.752Z,12.17
2023-02-22T09:13:33.003Z,11.13
2023-02-22T09:16:05.231Z,12.17
2023-02-22T09:18:44.019Z,11.67
2023-02-22T09:21:37.033Z,12.10
2023-02-22T09:24:10.609Z,12.17
2023-02-22T09:27:10.226Z,12.03
2023-02-22T09:30:00.785Z,11.57
2023-02-22T09:32:32.376Z,11.37
2023-02-22T09:35:33.326Z,12.93
2023-02-22T09:38:07.788Z,13.47
2023-02-22T09:40:45.386Z,13.13
2023-02-22T09:43:48.304Z,13.50
2023-02-22T09:46:30.114Z,13.03
2023-02-22T09:49:16.232Z,13.83
2023-02-22T09:51:54.961Z,103.80
2023-02-22T09:54:37.490Z,16.37
2023-02-22T09:57:29.237Z,14.90
2023-02-22T10:00:14.603Z,14.03
2023-02-22T10:03:03.797Z,13.63
2023-02-22T10:05:40.168Z,14.10
2023-02-22T10:08:35.101Z,14.43
2023-02-22T10:11:31.856Z,15.20
2023-02-22T10:14:15.868Z,13.67
2023-02-22T10:16:57.726Z,14.23
2023-02-22T10:19:43.212Z,14.37
2023-02-22T10:22:40.143Z,12.53
2023-02-22T10:25:22.334Z,13.50
2023-02-22T10:28:06.729Z,12.97
2023-02-22T10:30:55.086Z,11.73
2023-02-22T10:33:38.148Z,12.33
2023-02-22T10:36:11.857Z,10.83
2023-02-22T10:38:59.779Z,12.30
2023-02-22T10:41:43.949Z,12.23
2023-02-22T10:44:21.542Z,11.90
2023-02-22T10:46:58.685Z,12.30
2023-02-22T10:49:33.590Z,11.93
2023-02-22T10:52:14.799Z,11.50
2023-02-22T10:54:52.262Z,11.90
2023-02-22T10:57:29.331Z,11.43
2023-02-22T11:00:21.451Z,11.43
2023-02-22T11:03:02.027Z,11.07
2023-02-22T11:05:47.015Z,11.00
2023-02-22T11:08:47.022Z,9.97
2023-02-22T11:11:36.506Z,9.97
2023-02-22T11:14:11.068Z,10.40
2023-02-22T11:16:46.646Z,10.67
2023-02-22T11:19:25.418Z,9.40
2023-02-22T11:22:11.462Z,8.03
2023-02-22T11:24:50.999Z,6.23
2023-02-22T11:27:39.144Z,5.30
2023-02-22T11:30:42.873Z,5.43
2023-02-22T11:33:32.093Z,5.33
2023-02-22T11:36:06.214Z,4.70
2023-02-22T11:38:46.369Z,4.80
2023-02-22T11:41:24.744Z,4.50
2023-02-22T11:44:21.515Z,4.63
2023-02-22T11:47:07.223Z,4.83
2023-02-22T11:49:42.809Z,4.93
2023-02-22T11:52:28.654Z,5.97
2023-02-22T11:55:36.516Z,5.73
2023-02-22T11:58:33.255Z,5.60
2023-02-22T12:01:27.486Z,5.63
2023-02-22T12:04:25.708Z,5.50
2023-02-22T12:07:15.504Z,5.43
2023-02-22T12:10:09.849Z,5.40
2023-02-22T12:12:55.556Z,5.20
2023-02-22T12:15:40.641Z,5.03
2023-02-22T12:18:27.054Z,5.47
2023-02-22T12:21:07.770Z,4.63
2023-02-22T12:23:58.765Z,5.60
2023-02-22T12:26:33.491Z,6.07
2023-02-22T12:29:15.537Z,5.47
2023-02-22T12:32:07.139Z,5.97
2023-02-22T12:34:49.841Z,5.07
2023-02-22T12:37:25.093Z,5.37
2023-02-22T12:40:19.512Z,5.40
2023-02-22T12:43:00.228Z,5.30
2023-02-22T12:45:40.026Z,5.43
2023-02-22T12:51:47.477Z,4.83
2023-02-22T12:54:32.454Z,4.83
2023-02-22T12:57:17.527Z,4.97
2023-02-22T12:59:59.442Z,5.30
2023-02-22T13:03:08.891Z,5.47
2023-02-22T13:05:56.466Z,5.97
2023-02-22T13:08:36.321Z,5.80
2023-02-22T13:11:23.683Z,6.83
2023-02-22T13:14:18.140Z,5.93
2023-02-22T13:17:11.443Z,5.47
2023-02-22T13:19:51.567Z,6.27
2023-02-22T13:22:37.533Z,6.30
2023-02-22T13:25:19.728Z,6.10
2023-02-22T13:28:09.477Z,6.50
2023-02-22T13:30:45.794Z,6.53
2023-02-22T13:33:40.050Z,6.63
2023-02-22T13:36:27.757Z,5.90
2023-02-22T13:39:28.657Z,6.80
2023-02-22T13:42:13.374Z,6.40
2023-02-22T13:45:12.963Z,6.80
2023-02-22T13:48:23.353Z,6.73
2023-02-22T13:51:30.065Z,6.37
2023-02-22T13:54:08.153Z,7.00
2023-02-22T13:56:49.041Z,7.03
2023-02-22T13:59:36.872Z,5.57
2023-02-22T14:02:44.847Z,6.20
2023-02-22T14:05:55.019Z,6.90
2023-02-22T14:08:57.511Z,8.27
2023-02-22T14:12:01.804Z,9.37
2023-02-22T14:14:37.911Z,9.30
2023-02-22T14:17:31.874Z,10.13
2023-02-22T14:20:37.151Z,9.10
2023-02-22T14:23:46.452Z,9.73
2023-02-22T14:26:28.609Z,10.20
2023-02-22T14:29:17.514Z,10.70
2023-02-22T14:32:16.311Z,10.20
2023-02-22T14:35:14.286Z,10.63
2023-02-22T14:37:55.650Z,11.37
2023-02-22T14:40:40.208Z,10.63
2023-02-22T14:43:26.076Z,10.10
2023-02-22T14:46:05.510Z,9.37
2023-02-22T14:48:45.735Z,9.07
2023-02-22T14:51:27.035Z,9.23
2023-02-22T14:54:03.491Z,8.60
2023-02-22T14:56:49.399Z,8.93
2023-02-22T14:59:35.971Z,8.47
2023-02-22T15:02:33.404Z,8.53
2023-02-22T15:05:23.091Z,9.13
2023-02-22T15:08:13.004Z,8.47
2023-02-22T15:11:00.120Z,10.47
2023-02-22T15:13:55.794Z,9.70
2023-02-22T15:16:50.374Z,10.70
2023-02-22T15:19:48.658Z,9.93
2023-02-22T15:22:33.186Z,9.53
2023-02-22T15:25:28.310Z,10.30
2023-02-22T15:28:12.389Z,10.70
2023-02-22T15:30:58.169Z,10.97
2023-02-22T15:33:38.281Z,10.63
2023-02-22T15:36:17.512Z,11.33
2023-02-22T15:39:11.539Z,10.90
2023-02-22T15:41:56.510Z,10.13
2023-02-22T15:45:06.131Z,11.03
2023-02-22T15:47:42.064Z,10.97
2023-02-22T15:50:33.886Z,9.73
2023-02-22T15:53:32.831Z,10.03
2023-02-22T15:56:44.917Z,10.57
2023-02-22T16:00:08.360Z,9.10
2023-02-22T16:02:48.650Z,10.73
2023-02-22T16:05:52.485Z,10.37
2023-02-22T16:08:57.055Z,10.30
2023-02-22T16:11:40.873Z,9.60
2023-02-22T16:14:40.754Z,10.07
2023-02-22T16:17:34.550Z,10.40
2023-02-22T16:20:37.686Z,10.20
2023-02-22T16:24:15.589Z,10.93
2023-02-22T16:27:09.936Z,10.63
2023-02-22T16:29:48.838Z,10.87
2023-02-22T16:32:21.738Z,10.47
2023-02-22T16:35:11.008Z,10.57
2023-02-22T16:38:14.964Z,11.10
2023-02-22T16:41:13.600Z,11.37
2023-02-22T16:43:59.377Z,11.07
2023-02-22T16:46:55.215Z,11.63
2023-02-22T16:49:56.569Z,11.83
2023-02-22T16:52:42.037Z,11.60
2023-02-22T16:55:54.614Z,11.57
2023-02-22T17:01:46.167Z,12.27
2023-02-22T17:04:38.351Z,10.83
2023-02-22T17:07:13.795Z,10.87
2023-02-22T17:10:03.874Z,11.80
2023-02-22T17:12:41.975Z,12.30
2023-02-22T17:15:26.878Z,11.60
2023-02-22T17:18:24.243Z,12.03
2023-02-22T17:20:55.926Z,12.13
2023-02-22T17:23:40.787Z,12.27
2023-02-22T17:26:26.799Z,11.77
2023-02-22T17:29:02.958Z,11.80
2023-02-22T17:31:47.193Z,11.23
2023-02-22T17:34:20.481Z,12.40
2023-02-22T17:37:00.231Z,12.50
2023-02-22T17:39:33.664Z,12.87
2023-02-22T17:42:21.506Z,13.23
2023-02-22T17:44:54.644Z,12.30
2023-02-22T17:47:27.406Z,14.03
2023-02-22T17:50:05.426Z,14.53
2023-02-22T17:52:35.498Z,15.27
2023-02-22T17:55:17.350Z,15.80
2023-02-22T17:58:01.376Z,15.77
2023-02-22T18:00:39.453Z,15.37
2023-02-22T18:03:25.910Z,16.03
2023-02-22T18:05:58.668Z,15.50
2023-02-22T18:08:55.771Z,15.63
2023-02-22T18:11:33.658Z,16.00
2023-02-22T18:14:12.546Z,16.23
2023-02-22T18:16:43.518Z,16.57
2023-02-22T18:19:23.966Z,16.33
2023-02-22T18:22:03.566Z,16.80
2023-02-22T18:24:36.831Z,17.50
2023-02-22T18:27:12.021Z,16.67
2023-02-22T18:29:42.270Z,19.00
2023-02-22T18:32:15.641Z,18.53
2023-02-22T18:34:48.993Z,18.10
2023-02-22T18:37:22.216Z,18.67
2023-02-22T18:39:55.755Z,17.53
2023-02-22T18:42:32.867Z,15.60
2023-02-22T18:45:04.932Z,18.50
2023-02-22T18:47:51.228Z,17.60
2023-02-22T18:50:24.573Z,18.37
2023-02-22T18:53:07.880Z,16.83
2023-02-22T18:55:44.171Z,17.57
2023-02-22T18:58:16.602Z,15.90
2023-02-22T19:01:05.743Z,17.90
2023-02-22T19:03:47.084Z,17.67
2023-02-22T19:06:25.170Z,18.77
2023-02-22T19:09:11.647Z,18.53
2023-02-22T19:11:45.441Z,17.77
2023-02-22T19:14:26.719Z,18.70
2023-02-22T19:17:16.515Z,18.67
2023-02-22T19:23:05.016Z,18.73
2023-02-22T19:25:35.061Z,17.53
2023-02-22T19:28:05.115Z,19.43
2023-02-22T19:30:35.226Z,19.37
2023-02-22T19:33:05.539Z,18.27
2023-02-22T19:35:36.238Z,18.10
2023-02-22T19:38:08.791Z,17.83
2023-02-22T19:40:40.299Z,18.53
2023-02-22T19:43:10.334Z,19.30
2023-02-22T19:45:42.898Z,18.80
2023-02-22T19:48:14.503Z,19.33
2023-02-22T19:50:49.351Z,18.47
2023-02-22T19:53:21.916Z,17.90
2023-02-22T19:55:51.879Z,18.17
2023-02-22T19:58:21.887Z,19.63
2023-02-22T20:00:51.909Z,18.67
2023-02-22T20:03:24.695Z,19.37
2023-02-22T20:05:55.117Z,17.90
2023-02-22T20:08:28.496Z,19.80
2023-02-22T20:11:01.220Z,18.53
2023-02-22T20:13:31.530Z,17.90
2023-02-22T20:16:01.836Z,19.83
2023-02-22T20:18:32.746Z,18.27
2023-02-22T20:21:03.364Z,19.43
2023-02-22T20:23:36.036Z,19.43
2023-02-22T20:26:06.144Z,18.73
2023-02-22T20:28:36.685Z,20.10
2023-02-22T20:31:11.410Z,19.50
2023-02-22T20:33:42.032Z,19.30
2023-02-22T20:36:13.226Z,19.97
2023-02-22T20:38:46.150Z,19.13
2023-02-22T20:41:18.444Z,18.37
2023-02-22T20:43:52.872Z,18.50
2023-02-22T20:46:23.515Z,19.97
2023-02-22T20:48:58.235Z,20.57
2023-02-22T20:51:29.865Z,17.87
2023-02-22T20:54:03.695Z,19.30
2023-02-22T20:56:35.637Z,19.97
2023-02-22T20:59:07.347Z,18.30
2023-02-22T21:01:37.475Z,19.57
2023-02-22T21:04:10.140Z,20.37
2023-02-22T21:06:41.271Z,21.20
2023-02-22T21:09:17.765Z,21.63
2023-02-22T21:11:49.208Z,21.00
2023-02-22T21:14:21.191Z,22.40
2023-02-22T21:16:53.285Z,22.70
2023-02-22T21:19:28.308Z,22.57
2023-02-22T21:22:01.347Z,22.10
2023-02-22T21:24:35.907Z,22.30
2023-02-22T21:27:07.224Z,22.40
2023-02-22T21:29:37.825Z,22.73
2023-02-22T21:32:08.895Z,22.90
2023-02-22T21:34:39.448Z,23.07
2023-02-22T21:37:10.400Z,22.80
2023-02-22T21:39:47.736Z,22.23
2023-02-22T21:42:17.981Z,22.10
2023-02-22T21:44:48.577Z,23.13
2023-02-22T21:47:18.510Z,23.17
2023-02-22T21:49:49.450Z,22.80
2023-02-22T21:52:19.701Z,23.93
2023-02-22T21:54:52.208Z,24.30
2023-02-22T21:57:22.202Z,22.63
2023-02-22T21:59:53.418Z,23.47
2023-02-22T22:02:23.799Z,24.87
2023-02-22T22:04:53.719Z,24.40
2023-02-22T22:07:23.711Z,23.73
2023-02-22T22:09:57.017Z,25.83
2023-02-22T22:12:37.489Z,25.07
2023-02-22T22:15:09.901Z,25.57
2023-02-22T22:17:40.683Z,24.63
2023-02-22T22:20:14.855Z,24.37
2023-02-22T22:22:46.246Z,24.67
2023-02-22T22:25:20.022Z,24.97
2023-02-22T22:27:50.295Z,24.37
2023-02-22T22:30:20.690Z,25.50
2023-02-22T22:32:51.469Z,24.33
2023-02-22T22:35:22.350Z,25.70
2023-02-22T22:37:52.204Z,25.07
2023-02-22T22:40:24.921Z,26.10
2023-02-22T22:42:54.920Z,24.60
2023-02-22T22:45:26.126Z,25.93
2023-02-22T22:47:57.308Z,24.53
2023-02-22T22:50:27.700Z,26.67
2023-02-22T22:52:58.242Z,25.57
2023-02-22T22:55:30.914Z,25.47
2023-02-22T22:58:00.754Z,25.50
2023-02-22T23:00:37.648Z,25.73
2023-02-22T23:03:09.695Z,24.97
2023-02-22T23:05:42.434Z,24.83
2023-02-22T23:08:13.341Z,25.43
2023-02-22T23:10:46.866Z,25.93
2023-02-22T23:13:16.803Z,25.97
2023-02-22T23:15:49.003Z,24.90
2023-02-22T23:18:20.695Z,25.57
2023-02-22T23:20:55.428Z,25.97
2023-02-22T23:23:27.860Z,25.07
2023-02-22T23:26:11.826Z,24.87
2023-02-22T23:28:43.441Z,25.77
2023-02-22T23:31:16.636Z,26.60
2023-02-22T23:33:48.353Z,25.80
2023-02-22T23:36:19.192Z,25.17
2023-02-22T23:38:49.202Z,26.03
2023-02-22T23:41:25.263Z,25.40
2023-02-22T23:43:55.170Z,25.87
2023-02-22T23:46:27.147Z,25.93
2023-02-22T23:49:01.822Z,25.20
2023-02-22T23:51:39.489Z,24.33
2023-02-22T23:54:12.505Z,26.17
2023-02-22T23:56:50.325Z,27.10
2023-02-22T23:59:20.190Z,25.83
